sensor_id;sensor_type;location;lat;lon;timestamp;temperature;humidity
51305;HTU21D;37392;50.964;6.952;2023-04-03T00:00:38;2.73;94.52
51305;HTU21D;37392;50.964;6.952;2023-04-03T00:03:03;2.61;95.51
51305;HTU21D;37392;50.964;6.952;2023-04-03T00:05:29;2.38;95.84
51305;HTU21D;37392;50.964;6.952;2023-04-03T00:07:55;2.23;96.91
51305;HTU21D;37392;50.964;6.952;2023-04-03T00:10:20;2.16;97.68
51305;HTU21D;37392;50.964;6.952;2023-04-03T00:12:46;2.10;98.21
51305;HTU21D;37392;50.964;6.952;2023-04-03T00:15:11;1.99;98.57
51305;HTU21D;37392;50.964;6.952;2023-04-03T00:17:37;2.03;99.35
51305;HTU21D;37392;50.964;6.952;2023-04-03T00:20:03;2.07;99.55
51305;HTU21D;37392;50.964;6.952;2023-04-03T00:22:30;2.08;99.16
51305;HTU21D;37392;50.964;6.952;2023-04-03T00:24:55;2.20;98.66
51305;HTU21D;37392;50.964;6.952;2023-04-03T00:27:21;2.13;98.55
51305;HTU21D;37392;50.964;6.952;2023-04-03T00:29:47;2.12;98.42
51305;HTU21D;37392;50.964;6.952;2023-04-03T00:32:12;2.08;98.60
51305;HTU21D;37392;50.964;6.952;2023-04-03T00:34:38;1.94;99.04
51305;HTU21D;37392;50.964;6.952;2023-04-03T00:37:03;1.85;99.21
51305;HTU21D;37392;50.964;6.952;2023-04-03T00:39:29;1.81;99.88
51305;HTU21D;37392;50.964;6.952;2023-04-03T00:41:54;1.75;99.93
51305;HTU21D;37392;50.964;6.952;2023-04-03T00:44:21;1.75;100.42
51305;HTU21D;37392;50.964;6.952;2023-04-03T00:46:58;1.71;100.43
51305;HTU21D;37392;50.964;6.952;2023-04-03T00:49:24;1.72;100.52
51305;HTU21D;37392;50.964;6.952;2023-04-03T00:51:50;1.84;100.15
51305;HTU21D;37392;50.964;6.952;2023-04-03T00:54:16;1.72;100.32
51305;HTU21D;37392;50.964;6.952;2023-04-03T00:56:41;1.66;100.06
51305;HTU21D;37392;50.964;6.952;2023-04-03T00:59:09;1.51;100.16
51305;HTU21D;37392;50.964;6.952;2023-04-03T01:01:36;1.55;100.49
51305;HTU21D;37392;50.964;6.952;2023-04-03T01:04:02;1.51;100.18
51305;HTU21D;37392;50.964;6.952;2023-04-03T01:06:34;1.47;100.70
51305;HTU21D;37392;50.964;6.952;2023-04-03T01:09:02;1.57;100.15
51305;HTU21D;37392;50.964;6.952;2023-04-03T01:11:28;1.45;100.00
51305;HTU21D;37392;50.964;6.952;2023-04-03T01:13:53;1.43;100.41
51305;HTU21D;37392;50.964;6.952;2023-04-03T01:16:19;1.47;99.76
51305;HTU21D;37392;50.964;6.952;2023-04-03T01:18:44;1.36;99.85
51305;HTU21D;37392;50.964;6.952;2023-04-03T01:21:28;1.31;100.23
51305;HTU21D;37392;50.964;6.952;2023-04-03T01:26:46;1.20;100.66
51305;HTU21D;37392;50.964;6.952;2023-04-03T01:29:13;1.18;100.76
51305;HTU21D;37392;50.964;6.952;2023-04-03T01:31:55;1.09;101.13
51305;HTU21D;37392;50.964;6.952;2023-04-03T01:34:22;1.11;101.31
51305;HTU21D;37392;50.964;6.952;2023-04-03T01:36:48;0.95;101.27
51305;HTU21D;37392;50.964;6.952;2023-04-03T01:39:15;0.87;101.98
51305;HTU21D;37392;50.964;6.952;2023-04-03T01:41:41;0.84;102.52
51305;HTU21D;37392;50.964;6.952;2023-04-03T01:44:06;0.84;102.86
51305;HTU21D;37392;50.964;6.952;2023-04-03T01:46:31;0.84;103.09
51305;HTU21D;37392;50.964;6.952;2023-04-03T01:48:57;0.83;103.12
51305;HTU21D;37392;50.964;6.952;2023-04-03T01:51:23;0.81;103.31
51305;HTU21D;37392;50.964;6.952;2023-04-03T01:53:48;0.88;103.46
51305;HTU21D;37392;50.964;6.952;2023-04-03T01:56:14;0.80;103.40
51305;HTU21D;37392;50.964;6.952;2023-04-03T01:58:39;0.72;103.61
51305;HTU21D;37392;50.964;6.952;2023-04-03T02:01:05;0.64;103.80
51305;HTU21D;37392;50.964;6.952;2023-04-03T02:03:31;0.50;104.06
51305;HTU21D;37392;50.964;6.952;2023-04-03T02:05:56;0.38;104.40
51305;HTU21D;37392;50.964;6.952;2023-04-03T02:08:22;0.38;105.11
51305;HTU21D;37392;50.964;6.952;2023-04-03T02:10:48;0.51;104.95
51305;HTU21D;37392;50.964;6.952;2023-04-03T02:13:14;0.67;104.87
51305;HTU21D;37392;50.964;6.952;2023-04-03T02:15:40;0.64;104.22
51305;HTU21D;37392;50.964;6.952;2023-04-03T02:18:06;0.48;104.03
51305;HTU21D;37392;50.964;6.952;2023-04-03T02:20:32;0.44;104.90
51305;HTU21D;37392;50.964;6.952;2023-04-03T02:22:58;0.47;105.11
51305;HTU21D;37392;50.964;6.952;2023-04-03T02:25:24;0.46;105.07
51305;HTU21D;37392;50.964;6.952;2023-04-03T02:31:06;0.58;104.47
51305;HTU21D;37392;50.964;6.952;2023-04-03T02:33:31;0.64;104.36
51305;HTU21D;37392;50.964;6.952;2023-04-03T02:35:58;0.62;104.28
51305;HTU21D;37392;50.964;6.952;2023-04-03T02:38:24;0.57;104.16
51305;HTU21D;37392;50.964;6.952;2023-04-03T02:40:50;0.57;104.40
51305;HTU21D;37392;50.964;6.952;2023-04-03T02:43:16;0.69;104.29
51305;HTU21D;37392;50.964;6.952;2023-04-03T02:45:42;0.63;104.11
51305;HTU21D;37392;50.964;6.952;2023-04-03T02:48:07;0.49;103.78
51305;HTU21D;37392;50.964;6.952;2023-04-03T02:50:33;0.49;104.51
51305;HTU21D;37392;50.964;6.952;2023-04-03T02:52:58;0.39;104.57
51305;HTU21D;37392;50.964;6.952;2023-04-03T02:55:23;0.33;104.59
51305;HTU21D;37392;50.964;6.952;2023-04-03T02:57:49;0.33;105.38
51305;HTU21D;37392;50.964;6.952;2023-04-03T03:00:15;0.47;105.53
51305;HTU21D;37392;50.964;6.952;2023-04-03T03:02:40;0.55;104.73
51305;HTU21D;37392;50.964;6.952;2023-04-03T03:05:06;0.44;104.47
51305;HTU21D;37392;50.964;6.952;2023-04-03T03:07:32;0.50;104.80
51305;HTU21D;37392;50.964;6.952;2023-04-03T03:09:58;0.45;104.83
51305;HTU21D;37392;50.964;6.952;2023-04-03T03:12:23;0.71;104.24
51305;HTU21D;37392;50.964;6.952;2023-04-03T03:14:49;0.78;103.47
51305;HTU21D;37392;50.964;6.952;2023-04-03T03:17:15;0.84;102.69
51305;HTU21D;37392;50.964;6.952;2023-04-03T03:19:41;0.84;102.82
51305;HTU21D;37392;50.964;6.952;2023-04-03T03:22:07;0.89;102.41
51305;HTU21D;37392;50.964;6.952;2023-04-03T03:24:32;0.88;102.35
51305;HTU21D;37392;50.964;6.952;2023-04-03T03:26:58;0.93;101.82
51305;HTU21D;37392;50.964;6.952;2023-04-03T03:29:23;0.95;101.32
51305;HTU21D;37392;50.964;6.952;2023-04-03T03:31:48;0.96;101.25
51305;HTU21D;37392;50.964;6.952;2023-04-03T03:34:14;0.96;101.19
51305;HTU21D;37392;50.964;6.952;2023-04-03T03:36:39;1.01;100.76
51305;HTU21D;37392;50.964;6.952;2023-04-03T03:39:05;1.09;100.38
51305;HTU21D;37392;50.964;6.952;2023-04-03T03:41:31;0.99;100.33
51305;HTU21D;37392;50.964;6.952;2023-04-03T03:43:56;1.03;100.09
51305;HTU21D;37392;50.964;6.952;2023-04-03T03:46:22;1.04;100.18
51305;HTU21D;37392;50.964;6.952;2023-04-03T03:48:47;1.01;99.92
51305;HTU21D;37392;50.964;6.952;2023-04-03T03:51:13;0.95;100.05
51305;HTU21D;37392;50.964;6.952;2023-04-03T03:53:38;0.92;100.56
51305;HTU21D;37392;50.964;6.952;2023-04-03T03:56:04;0.96;100.20
51305;HTU21D;37392;50.964;6.952;2023-04-03T03:58:30;0.93;100.26
51305;HTU21D;37392;50.964;6.952;2023-04-03T04:00:56;0.97;100.07
51305;HTU21D;37392;50.964;6.952;2023-04-03T04:03:21;1.06;99.69
51305;HTU21D;37392;50.964;6.952;2023-04-03T04:05:47;0.97;99.83
51305;HTU21D;37392;50.964;6.952;2023-04-03T04:08:12;0.97;99.93
51305;HTU21D;37392;50.964;6.952;2023-04-03T04:10:38;1.02;99.37
51305;HTU21D;37392;50.964;6.952;2023-04-03T04:13:03;0.88;99.74
51305;HTU21D;37392;50.964;6.952;2023-04-03T04:15:29;0.91;99.87
51305;HTU21D;37392;50.964;6.952;2023-04-03T04:17:54;0.78;100.00
51305;HTU21D;37392;50.964;6.952;2023-04-03T04:22:50;0.63;100.96
51305;HTU21D;37392;50.964;6.952;2023-04-03T04:25:16;0.73;100.56
51305;HTU21D;37392;50.964;6.952;2023-04-03T04:27:41;0.75;100.56
51305;HTU21D;37392;50.964;6.952;2023-04-03T04:30:07;0.84;100.38
51305;HTU21D;37392;50.964;6.952;2023-04-03T04:32:33;0.87;99.98
51305;HTU21D;37392;50.964;6.952;2023-04-03T04:34:58;0.81;99.96
51305;HTU21D;37392;50.964;6.952;2023-04-03T04:37:24;0.79;99.90
51305;HTU21D;37392;50.964;6.952;2023-04-03T04:39:49;0.86;99.57
51305;HTU21D;37392;50.964;6.952;2023-04-03T04:42:15;0.82;99.65
51305;HTU21D;37392;50.964;6.952;2023-04-03T04:44:40;0.93;99.41
51305;HTU21D;37392;50.964;6.952;2023-04-03T04:47:06;0.91;98.96
51305;HTU21D;37392;50.964;6.952;2023-04-03T04:49:31;0.96;98.76
51305;HTU21D;37392;50.964;6.952;2023-04-03T04:51:57;0.94;98.81
51305;HTU21D;37392;50.964;6.952;2023-04-03T04:54:22;0.86;98.84
51305;HTU21D;37392;50.964;6.952;2023-04-03T04:56:48;0.66;99.31
51305;HTU21D;37392;50.964;6.952;2023-04-03T04:59:13;0.60;100.12
51305;HTU21D;37392;50.964;6.952;2023-04-03T05:01:39;0.57;100.29
51305;HTU21D;37392;50.964;6.952;2023-04-03T05:04:04;0.57;100.57
51305;HTU21D;37392;50.964;6.952;2023-04-03T05:06:30;0.71;100.08
51305;HTU21D;37392;50.964;6.952;2023-04-03T05:08:57;0.78;99.95
51305;HTU21D;37392;50.964;6.952;2023-04-03T05:11:22;1.06;98.50
51305;HTU21D;37392;50.964;6.952;2023-04-03T05:13:48;1.03;97.97
51305;HTU21D;37392;50.964;6.952;2023-04-03T05:16:14;0.97;98.10
51305;HTU21D;37392;50.964;6.952;2023-04-03T05:18:39;0.96;98.30
51305;HTU21D;37392;50.964;6.952;2023-04-03T05:21:05;0.93;98.30
51305;HTU21D;37392;50.964;6.952;2023-04-03T05:23:30;0.98;98.35
51305;HTU21D;37392;50.964;6.952;2023-04-03T05:25:55;1.05;98.10
51305;HTU21D;37392;50.964;6.952;2023-04-03T05:28:21;1.12;97.65
51305;HTU21D;37392;50.964;6.952;2023-04-03T05:30:52;1.17;97.60
51305;HTU21D;37392;50.964;6.952;2023-04-03T05:33:19;1.17;97.61
51305;HTU21D;37392;50.964;6.952;2023-04-03T05:35:44;1.36;97.95
51305;HTU21D;37392;50.964;6.952;2023-04-03T05:38:10;2.21;96.72
51305;HTU21D;37392;50.964;6.952;2023-04-03T05:40:36;3.03;93.80
51305;HTU21D;37392;50.964;6.952;2023-04-03T05:43:01;3.80;91.72
51305;HTU21D;37392;50.964;6.952;2023-04-03T05:45:27;4.53;88.83
51305;HTU21D;37392;50.964;6.952;2023-04-03T05:47:52;5.03;86.55
51305;HTU21D;37392;50.964;6.952;2023-04-03T05:50:18;5.70;84.69
51305;HTU21D;37392;50.964;6.952;2023-04-03T05:52:44;6.31;81.56
51305;HTU21D;37392;50.964;6.952;2023-04-03T05:55:11;6.46;79.27
51305;HTU21D;37392;50.964;6.952;2023-04-03T05:57:36;6.69;77.97
51305;HTU21D;37392;50.964;6.952;2023-04-03T06:00:03;7.30;76.24
51305;HTU21D;37392;50.964;6.952;2023-04-03T06:02:30;7.59;73.88
51305;HTU21D;37392;50.964;6.952;2023-04-03T06:04:56;7.72;73.38
51305;HTU21D;37392;50.964;6.952;2023-04-03T06:07:22;8.05;73.14
51305;HTU21D;37392;50.964;6.952;2023-04-03T06:09:49;8.13;70.84
51305;HTU21D;37392;50.964;6.952;2023-04-03T06:12:16;8.62;69.96
51305;HTU21D;37392;50.964;6.952;2023-04-03T06:14:42;8.77;68.76
51305;HTU21D;37392;50.964;6.952;2023-04-03T06:17:07;8.97;67.30
51305;HTU21D;37392;50.964;6.952;2023-04-03T06:19:35;9.46;66.34
51305;HTU21D;37392;50.964;6.952;2023-04-03T06:22:01;9.46;65.53
51305;HTU21D;37392;50.964;6.952;2023-04-03T06:24:28;10.15;64.42
51305;HTU21D;37392;50.964;6.952;2023-04-03T06:26:54;10.53;63.26
51305;HTU21D;37392;50.964;6.952;2023-04-03T06:29:20;10.41;62.63
51305;HTU21D;37392;50.964;6.952;2023-04-03T06:31:46;10.99;60.93
51305;HTU21D;37392;50.964;6.952;2023-04-03T06:34:12;10.31;61.99
51305;HTU21D;37392;50.964;6.952;2023-04-03T06:36:37;10.42;62.58
51305;HTU21D;37392;50.964;6.952;2023-04-03T06:39:03;10.88;61.34
51305;HTU21D;37392;50.964;6.952;2023-04-03T06:41:29;11.64;58.74
51305;HTU21D;37392;50.964;6.952;2023-04-03T06:43:55;11.58;57.78
51305;HTU21D;37392;50.964;6.952;2023-04-03T06:46:22;11.39;57.32
51305;HTU21D;37392;50.964;6.952;2023-04-03T06:48:48;11.33;58.60
51305;HTU21D;37392;50.964;6.952;2023-04-03T06:51:18;12.03;58.17
51305;HTU21D;37392;50.964;6.952;2023-04-03T06:53:48;12.53;55.48
51305;HTU21D;37392;50.964;6.952;2023-04-03T06:56:14;12.37;55.22
51305;HTU21D;37392;50.964;6.952;2023-04-03T06:58:40;12.90;55.42
51305;HTU21D;37392;50.964;6.952;2023-04-03T07:01:07;13.06;54.04
51305;HTU21D;37392;50.964;6.952;2023-04-03T07:03:34;13.16;52.48
51305;HTU21D;37392;50.964;6.952;2023-04-03T07:06:00;13.10;53.51
51305;HTU21D;37392;50.964;6.952;2023-04-03T07:08:26;12.49;53.85
51305;HTU21D;37392;50.964;6.952;2023-04-03T07:10:51;12.94;53.40
51305;HTU21D;37392;50.964;6.952;2023-04-03T07:13:17;13.63;52.72
51305;HTU21D;37392;50.964;6.952;2023-04-03T07:15:42;13.41;51.11
51305;HTU21D;37392;50.964;6.952;2023-04-03T07:18:07;13.25;51.68
51305;HTU21D;37392;50.964;6.952;2023-04-03T07:20:33;12.66;52.17
51305;HTU21D;37392;50.964;6.952;2023-04-03T07:22:58;12.38;52.44
51305;HTU21D;37392;50.964;6.952;2023-04-03T07:25:24;12.58;52.78
51305;HTU21D;37392;50.964;6.952;2023-04-03T07:27:50;12.33;52.42
51305;HTU21D;37392;50.964;6.952;2023-04-03T07:30:15;12.35;52.48
51305;HTU21D;37392;50.964;6.952;2023-04-03T07:32:41;12.15;52.36
51305;HTU21D;37392;50.964;6.952;2023-04-03T07:35:07;12.36;52.43
51305;HTU21D;37392;50.964;6.952;2023-04-03T07:37:32;11.94;52.28
51305;HTU21D;37392;50.964;6.952;2023-04-03T07:39:58;12.87;52.40
51305;HTU21D;37392;50.964;6.952;2023-04-03T07:42:24;13.23;50.79
51305;HTU21D;37392;50.964;6.952;2023-04-03T07:44:53;13.64;50.48
51305;HTU21D;37392;50.964;6.952;2023-04-03T07:47:19;13.62;49.18
51305;HTU21D;37392;50.964;6.952;2023-04-03T07:49:45;13.18;49.17
51305;HTU21D;37392;50.964;6.952;2023-04-03T07:52:11;12.47;50.18
51305;HTU21D;37392;50.964;6.952;2023-04-03T07:54:36;12.37;51.30
51305;HTU21D;37392;50.964;6.952;2023-04-03T07:57:02;12.75;50.98
51305;HTU21D;37392;50.964;6.952;2023-04-03T07:59:28;12.97;49.53
51305;HTU21D;37392;50.964;6.952;2023-04-03T08:01:53;12.44;49.63
51305;HTU21D;37392;50.964;6.952;2023-04-03T08:04:19;12.58;50.28
51305;HTU21D;37392;50.964;6.952;2023-04-03T08:06:44;12.43;49.95
51305;HTU21D;37392;50.964;6.952;2023-04-03T08:09:10;12.50;50.01
51305;HTU21D;37392;50.964;6.952;2023-04-03T08:11:35;12.99;49.63
51305;HTU21D;37392;50.964;6.952;2023-04-03T08:14:04;13.10;48.68
51305;HTU21D;37392;50.964;6.952;2023-04-03T08:16:29;13.36;48.44
51305;HTU21D;37392;50.964;6.952;2023-04-03T08:18:55;13.55;48.03
51305;HTU21D;37392;50.964;6.952;2023-04-03T08:21:20;13.27;47.46
51305;HTU21D;37392;50.964;6.952;2023-04-03T08:23:47;13.33;48.10
51305;HTU21D;37392;50.964;6.952;2023-04-03T08:26:15;13.47;47.12
51305;HTU21D;37392;50.964;6.952;2023-04-03T08:28:43;13.48;46.51
51305;HTU21D;37392;50.964;6.952;2023-04-03T08:31:12;13.77;46.53
51305;HTU21D;37392;50.964;6.952;2023-04-03T08:33:40;14.09;46.49
51305;HTU21D;37392;50.964;6.952;2023-04-03T08:36:07;13.96;46.41
51305;HTU21D;37392;50.964;6.952;2023-04-03T08:38:40;13.73;46.51
51305;HTU21D;37392;50.964;6.952;2023-04-03T08:41:14;13.83;46.35
51305;HTU21D;37392;50.964;6.952;2023-04-03T08:43:46;14.05;45.88
51305;HTU21D;37392;50.964;6.952;2023-04-03T08:46:22;14.73;45.06
51305;HTU21D;37392;50.964;6.952;2023-04-03T08:48:51;14.66;43.46
51305;HTU21D;37392;50.964;6.952;2023-04-03T08:51:17;14.82;43.38
51305;HTU21D;37392;50.964;6.952;2023-04-03T08:53:56;14.77;43.70
51305;HTU21D;37392;50.964;6.952;2023-04-03T08:56:24;14.74;43.36
51305;HTU21D;37392;50.964;6.952;2023-04-03T08:58:52;15.04;43.62
51305;HTU21D;37392;50.964;6.952;2023-04-03T09:01:23;15.65;42.77
51305;HTU21D;37392;50.964;6.952;2023-04-03T09:03:51;16.39;42.19
51305;HTU21D;37392;50.964;6.952;2023-04-03T09:08:56;16.64;38.36
51305;HTU21D;37392;50.964;6.952;2023-04-03T09:23:20;16.25;36.47
51305;HTU21D;37392;50.964;6.952;2023-04-03T09:25:48;16.58;36.63
51305;HTU21D;37392;50.964;6.952;2023-04-03T09:28:14;16.35;36.29
51305;HTU21D;37392;50.964;6.952;2023-04-03T09:30:39;16.55;36.69
51305;HTU21D;37392;50.964;6.952;2023-04-03T09:33:06;16.41;36.76
51305;HTU21D;37392;50.964;6.952;2023-04-03T09:35:34;16.20;36.43
51305;HTU21D;37392;50.964;6.952;2023-04-03T09:40:28;16.13;37.00
51305;HTU21D;37392;50.964;6.952;2023-04-03T09:42:59;16.31;37.72
51305;HTU21D;37392;50.964;6.952;2023-04-03T09:45:28;16.00;37.30
51305;HTU21D;37392;50.964;6.952;2023-04-03T09:48:05;16.17;36.97
51305;HTU21D;37392;50.964;6.952;2023-04-03T09:53:26;16.71;35.86
51305;HTU21D;37392;50.964;6.952;2023-04-03T09:56:01;16.40;33.79
51305;HTU21D;37392;50.964;6.952;2023-04-03T09:58:30;16.49;32.76
51305;HTU21D;37392;50.964;6.952;2023-04-03T10:00:59;16.56;32.09
51305;HTU21D;37392;50.964;6.952;2023-04-03T10:03:30;16.99;31.38
51305;HTU21D;37392;50.964;6.952;2023-04-03T10:05:57;17.01;29.61
51305;HTU21D;37392;50.964;6.952;2023-04-03T10:11:05;16.42;30.35
51305;HTU21D;37392;50.964;6.952;2023-04-03T10:13:58;16.63;30.75
51305;HTU21D;37392;50.964;6.952;2023-04-03T10:19:34;16.86;30.47
51305;HTU21D;37392;50.964;6.952;2023-04-03T10:22:02;16.95;29.56
51305;HTU21D;37392;50.964;6.952;2023-04-03T10:24:36;16.67;29.68
51305;HTU21D;37392;50.964;6.952;2023-04-03T10:27:13;16.66;29.49
51305;HTU21D;37392;50.964;6.952;2023-04-03T10:43:21;16.21;30.31
51305;HTU21D;37392;50.964;6.952;2023-04-03T10:46:27;17.01;30.08
51305;HTU21D;37392;50.964;6.952;2023-04-03T10:51:56;16.75;29.58
51305;HTU21D;37392;50.964;6.952;2023-04-03T10:57:05;16.82;30.00
51305;HTU21D;37392;50.964;6.952;2023-04-03T11:02:04;15.83;30.97
51305;HTU21D;37392;50.964;6.952;2023-04-03T11:04:34;14.65;32.41
51305;HTU21D;37392;50.964;6.952;2023-04-03T11:07:07;13.60;34.33
51305;HTU21D;37392;50.964;6.952;2023-04-03T11:09:37;13.04;35.98
51305;HTU21D;37392;50.964;6.952;2023-04-03T11:12:17;12.26;37.16
51305;HTU21D;37392;50.964;6.952;2023-04-03T11:14:46;11.66;37.12
51305;HTU21D;37392;50.964;6.952;2023-04-03T11:20:03;11.07;39.02
51305;HTU21D;37392;50.964;6.952;2023-04-03T11:22:43;11.17;39.29
51305;HTU21D;37392;50.964;6.952;2023-04-03T11:27:40;10.88;38.61
51305;HTU21D;37392;50.964;6.952;2023-04-03T11:30:18;10.87;39.12
51305;HTU21D;37392;50.964;6.952;2023-04-03T11:35:31;10.75;40.13
51305;HTU21D;37392;50.964;6.952;2023-04-03T11:37:57;10.59;40.54
51305;HTU21D;37392;50.964;6.952;2023-04-03T11:40:28;10.35;40.76
51305;HTU21D;37392;50.964;6.952;2023-04-03T11:53:00;10.31;41.46
51305;HTU21D;37392;50.964;6.952;2023-04-03T12:13:39;9.89;41.94
51305;HTU21D;37392;50.964;6.952;2023-04-03T12:16:20;9.82;41.58
51305;HTU21D;37392;50.964;6.952;2023-04-03T12:19:00;9.84;41.59
51305;HTU21D;37392;50.964;6.952;2023-04-03T12:35:09;9.48;42.00
51305;HTU21D;37392;50.964;6.952;2023-04-03T12:40:14;9.71;43.48
51305;HTU21D;37392;50.964;6.952;2023-04-03T12:45:21;9.56;44.03
51305;HTU21D;37392;50.964;6.952;2023-04-03T12:47:48;9.54;44.00
51305;HTU21D;37392;50.964;6.952;2023-04-03T12:55:31;9.57;42.55
51305;HTU21D;37392;50.964;6.952;2023-04-03T12:57:57;9.67;42.07
51305;HTU21D;37392;50.964;6.952;2023-04-03T13:00:41;9.70;41.52
51305;HTU21D;37392;50.964;6.952;2023-04-03T13:03:17;9.70;40.34
51305;HTU21D;37392;50.964;6.952;2023-04-03T13:05:47;9.53;39.66
51305;HTU21D;37392;50.964;6.952;2023-04-03T13:08:12;9.47;39.98
51305;HTU21D;37392;50.964;6.952;2023-04-03T13:13:55;9.46;40.39
51305;HTU21D;37392;50.964;6.952;2023-04-03T13:16:30;9.35;39.94
51305;HTU21D;37392;50.964;6.952;2023-04-03T13:18:57;9.48;40.81
51305;HTU21D;37392;50.964;6.952;2023-04-03T13:23:54;9.51;40.36
51305;HTU21D;37392;50.964;6.952;2023-04-03T13:26:22;9.57;40.39
51305;HTU21D;37392;50.964;6.952;2023-04-03T13:28:52;9.53;40.69
51305;HTU21D;37392;50.964;6.952;2023-04-03T13:31:39;9.39;41.19
51305;HTU21D;37392;50.964;6.952;2023-04-03T13:34:06;9.42;41.30
51305;HTU21D;37392;50.964;6.952;2023-04-03T13:36:34;9.45;41.84
51305;HTU21D;37392;50.964;6.952;2023-04-03T13:39:06;9.52;41.98
51305;HTU21D;37392;50.964;6.952;2023-04-03T13:41:53;9.53;42.14
51305;HTU21D;37392;50.964;6.952;2023-04-03T13:46:50;9.44;42.55
51305;HTU21D;37392;50.964;6.952;2023-04-03T13:51:58;9.49;42.45
51305;HTU21D;37392;50.964;6.952;2023-04-03T13:54:25;9.39;42.51
51305;HTU21D;37392;50.964;6.952;2023-04-03T13:57:01;9.29;43.19
51305;HTU21D;37392;50.964;6.952;2023-04-03T14:04:30;9.41;44.61
51305;HTU21D;37392;50.964;6.952;2023-04-03T14:06:56;9.35;44.28
51305;HTU21D;37392;50.964;6.952;2023-04-03T14:09:23;9.40;44.01
51305;HTU21D;37392;50.964;6.952;2023-04-03T14:11:53;9.38;43.92
51305;HTU21D;37392;50.964;6.952;2023-04-03T14:14:21;9.44;44.46
51305;HTU21D;37392;50.964;6.952;2023-04-03T14:16:53;9.45;44.98
51305;HTU21D;37392;50.964;6.952;2023-04-03T14:19:24;9.50;45.31
51305;HTU21D;37392;50.964;6.952;2023-04-03T14:21:52;9.52;45.58
51305;HTU21D;37392;50.964;6.952;2023-04-03T14:24:18;9.55;45.67
51305;HTU21D;37392;50.964;6.952;2023-04-03T14:26:45;9.48;45.70
51305;HTU21D;37392;50.964;6.952;2023-04-03T14:29:11;9.48;46.41
51305;HTU21D;37392;50.964;6.952;2023-04-03T14:31:37;9.55;46.86
51305;HTU21D;37392;50.964;6.952;2023-04-03T14:34:02;9.57;47.14
51305;HTU21D;37392;50.964;6.952;2023-04-03T14:36:28;9.55;46.89
51305;HTU21D;37392;50.964;6.952;2023-04-03T14:38:54;9.49;47.08
51305;HTU21D;37392;50.964;6.952;2023-04-03T14:41:21;9.49;46.86
51305;HTU21D;37392;50.964;6.952;2023-04-03T14:43:48;9.57;46.71
51305;HTU21D;37392;50.964;6.952;2023-04-03T14:46:35;9.57;46.63
51305;HTU21D;37392;50.964;6.952;2023-04-03T14:49:02;9.59;47.12
51305;HTU21D;37392;50.964;6.952;2023-04-03T14:51:32;9.55;47.95
51305;HTU21D;37392;50.964;6.952;2023-04-03T14:53:58;9.54;48.44
51305;HTU21D;37392;50.964;6.952;2023-04-03T14:56:25;9.44;47.47
51305;HTU21D;37392;50.964;6.952;2023-04-03T14:58:57;9.48;47.58
51305;HTU21D;37392;50.964;6.952;2023-04-03T15:01:24;9.57;47.53
51305;HTU21D;37392;50.964;6.952;2023-04-03T15:03:50;9.55;46.25
51305;HTU21D;37392;50.964;6.952;2023-04-03T15:06:16;9.57;46.02
51305;HTU21D;37392;50.964;6.952;2023-04-03T15:08:42;9.55;46.70
51305;HTU21D;37392;50.964;6.952;2023-04-03T15:11:08;9.54;47.58
51305;HTU21D;37392;50.964;6.952;2023-04-03T15:13:35;9.42;47.75
51305;HTU21D;37392;50.964;6.952;2023-04-03T15:16:00;9.42;48.21
51305;HTU21D;37392;50.964;6.952;2023-04-03T15:18:26;9.38;48.57
51305;HTU21D;37392;50.964;6.952;2023-04-03T15:20:52;9.37;48.59
51305;HTU21D;37392;50.964;6.952;2023-04-03T15:23:18;9.40;48.76
51305;HTU21D;37392;50.964;6.952;2023-04-03T15:25:45;9.34;48.91
51305;HTU21D;37392;50.964;6.952;2023-04-03T15:28:18;9.39;48.54
51305;HTU21D;37392;50.964;6.952;2023-04-03T15:31:05;9.34;48.08
51305;HTU21D;37392;50.964;6.952;2023-04-03T15:33:34;9.29;47.79
51305;HTU21D;37392;50.964;6.952;2023-04-03T15:36:00;9.15;48.10
51305;HTU21D;37392;50.964;6.952;2023-04-03T15:38:25;9.18;48.58
51305;HTU21D;37392;50.964;6.952;2023-04-03T15:40:51;9.23;48.99
51305;HTU21D;37392;50.964;6.952;2023-04-03T15:43:16;9.31;49.47
51305;HTU21D;37392;50.964;6.952;2023-04-03T15:45:42;9.26;49.63
51305;HTU21D;37392;50.964;6.952;2023-04-03T15:48:08;9.19;50.06
51305;HTU21D;37392;50.964;6.952;2023-04-03T15:50:36;9.18;50.48
51305;HTU21D;37392;50.964;6.952;2023-04-03T15:53:02;9.34;49.39
51305;HTU21D;37392;50.964;6.952;2023-04-03T15:55:29;9.37;48.51
51305;HTU21D;37392;50.964;6.952;2023-04-03T15:57:56;9.37;49.02
51305;HTU21D;37392;50.964;6.952;2023-04-03T16:00:22;9.30;49.45
51305;HTU21D;37392;50.964;6.952;2023-04-03T16:02:48;9.22;49.65
51305;HTU21D;37392;50.964;6.952;2023-04-03T16:05:16;9.17;50.33
51305;HTU21D;37392;50.964;6.952;2023-04-03T16:07:42;9.20;50.43
51305;HTU21D;37392;50.964;6.952;2023-04-03T16:10:09;9.14;50.80
51305;HTU21D;37392;50.964;6.952;2023-04-03T16:12:36;9.20;50.71
51305;HTU21D;37392;50.964;6.952;2023-04-03T16:15:02;9.15;50.26
51305;HTU21D;37392;50.964;6.952;2023-04-03T16:17:28;9.07;50.41
51305;HTU21D;37392;50.964;6.952;2023-04-03T16:19:56;9.06;50.72
51305;HTU21D;37392;50.964;6.952;2023-04-03T16:22:25;9.03;50.74
51305;HTU21D;37392;50.964;6.952;2023-04-03T16:24:51;8.94;51.14
51305;HTU21D;37392;50.964;6.952;2023-04-03T16:27:16;8.90;51.12
51305;HTU21D;37392;50.964;6.952;2023-04-03T16:29:42;8.96;51.40
51305;HTU21D;37392;50.964;6.952;2023-04-03T16:32:07;8.94;51.33
51305;HTU21D;37392;50.964;6.952;2023-04-03T16:34:33;8.86;51.43
51305;HTU21D;37392;50.964;6.952;2023-04-03T16:36:59;8.78;51.60
51305;HTU21D;37392;50.964;6.952;2023-04-03T16:39:25;8.76;51.65
51305;HTU21D;37392;50.964;6.952;2023-04-03T16:41:50;8.70;51.91
51305;HTU21D;37392;50.964;6.952;2023-04-03T16:44:16;8.65;52.08
51305;HTU21D;37392;50.964;6.952;2023-04-03T16:46:41;8.67;52.09
51305;HTU21D;37392;50.964;6.952;2023-04-03T16:49:07;8.58;52.39
51305;HTU21D;37392;50.964;6.952;2023-04-03T16:51:32;8.52;52.72
51305;HTU21D;37392;50.964;6.952;2023-04-03T16:53:58;8.59;52.75
51305;HTU21D;37392;50.964;6.952;2023-04-03T16:56:23;8.59;52.72
51305;HTU21D;37392;50.964;6.952;2023-04-03T16:58:51;8.52;52.78
51305;HTU21D;37392;50.964;6.952;2023-04-03T17:01:18;8.45;52.78
51305;HTU21D;37392;50.964;6.952;2023-04-03T17:03:44;8.46;52.90
51305;HTU21D;37392;50.964;6.952;2023-04-03T17:06:11;8.42;52.98
51305;HTU21D;37392;50.964;6.952;2023-04-03T17:08:44;8.32;53.22
51305;HTU21D;37392;50.964;6.952;2023-04-03T17:11:11;8.39;53.14
51305;HTU21D;37392;50.964;6.952;2023-04-03T17:13:36;8.27;53.23
51305;HTU21D;37392;50.964;6.952;2023-04-03T17:16:02;8.27;53.71
51305;HTU21D;37392;50.964;6.952;2023-04-03T17:18:30;8.19;53.66
51305;HTU21D;37392;50.964;6.952;2023-04-03T17:20:56;8.17;53.81
51305;HTU21D;37392;50.964;6.952;2023-04-03T17:23:23;8.19;53.06
51305;HTU21D;37392;50.964;6.952;2023-04-03T17:25:49;8.13;52.70
51305;HTU21D;37392;50.964;6.952;2023-04-03T17:28:15;8.07;52.67
51305;HTU21D;37392;50.964;6.952;2023-04-03T17:30:40;8.00;52.97
51305;HTU21D;37392;50.964;6.952;2023-04-03T17:33:06;7.97;53.30
51305;HTU21D;37392;50.964;6.952;2023-04-03T17:35:31;7.96;53.60